FFT1094 KSFO-KDEN
Flight info
| Callsign | FFT1094 |
|---|---|
| Flight time | 2h 12m |
| Altitude | 39000 |
| Route | TRUKN2 SYRAH Q128 JSICA LUDOH BUMMP SSKII4 |
| Aircraft | A20N/M-SDE2E3FGHIRWXY/LB1 |
Departure
| Time | 2026-05-06 19:50 |
|---|---|
| Airport | San Francisco International Airport (KSFO) |
Arrival
| Time | 2026-05-06 22:03 |
|---|---|
| Airport | Denver International Airport (KDEN) |
| Time | Latitude | Longitude | Altitude | Speed | Heading |
|---|---|---|---|---|---|
| 2026-05-06 19:34 | 37.61227 | -122.38413 | 17 ft | 0 kts | 291° |
| 2026-05-06 19:41 | 37.61224 | -122.38402 | 17 ft | 1 kts | 291° |
| 2026-05-06 19:41 | 37.61220 | -122.38391 | 17 ft | 2 kts | 288° |
| 2026-05-06 19:41 | 37.61218 | -122.38373 | 19 ft | 2 kts | 256° |
| 2026-05-06 19:42 | 37.61224 | -122.38356 | 20 ft | 2 kts | 221° |
| 2026-05-06 19:42 | 37.61228 | -122.38352 | 20 ft | 0 kts | 211° |
| 2026-05-06 19:43 | 37.61218 | -122.38359 | 21 ft | 3 kts | 211° |
| 2026-05-06 19:44 | 37.61193 | -122.38378 | 17 ft | 6 kts | 211° |
| 2026-05-06 19:44 | 37.61151 | -122.38407 | 17 ft | 8 kts | 200° |
| 2026-05-06 19:44 | 37.61085 | -122.38418 | 18 ft | 11 kts | 181° |
| 2026-05-06 19:44 | 37.61003 | -122.38421 | 19 ft | 13 kts | 184° |
| 2026-05-06 19:45 | 37.60913 | -122.38355 | 20 ft | 19 kts | 126° |
| 2026-05-06 19:45 | 37.60869 | -122.38183 | 23 ft | 24 kts | 106° |
| 2026-05-06 19:45 | 37.60787 | -122.37979 | 26 ft | 20 kts | 120° |
| 2026-05-06 19:45 | 37.60759 | -122.37837 | 24 ft | 16 kts | 46° |
| 2026-05-06 19:46 | 37.60822 | -122.37786 | 24 ft | 17 kts | 27° |
| 2026-05-06 19:46 | 37.60984 | -122.37680 | 20 ft | 21 kts | 27° |
| 2026-05-06 19:46 | 37.61118 | -122.37590 | 19 ft | 23 kts | 29° |
| 2026-05-06 19:46 | 37.61265 | -122.37491 | 19 ft | 24 kts | 27° |
| 2026-05-06 19:47 | 37.61415 | -122.37393 | 22 ft | 25 kts | 28° |
| 2026-05-06 19:47 | 37.61548 | -122.37260 | 23 ft | 24 kts | 63° |
| 2026-05-06 19:47 | 37.61528 | -122.37051 | 22 ft | 26 kts | 116° |
| 2026-05-06 19:47 | 37.61422 | -122.36863 | 19 ft | 26 kts | 131° |
| 2026-05-06 19:48 | 37.61319 | -122.36665 | 17 ft | 28 kts | 117° |
| 2026-05-06 19:48 | 37.61221 | -122.36437 | 17 ft | 30 kts | 118° |
| 2026-05-06 19:48 | 37.61155 | -122.36281 | 17 ft | 31 kts | 117° |
| 2026-05-06 19:48 | 37.61066 | -122.36065 | 19 ft | 20 kts | 116° |
| 2026-05-06 19:49 | 37.61122 | -122.35889 | 18 ft | 15 kts | 24° |
| 2026-05-06 19:49 | 37.61205 | -122.35922 | 18 ft | 14 kts | 297° |
| 2026-05-06 19:49 | 37.61267 | -122.36077 | 15 ft | 41 kts | 296° |
| 2026-05-06 19:49 | 37.61504 | -122.36649 | 18 ft | 104 kts | 298° |
| 2026-05-06 19:50 | 37.61768 | -122.37265 | 20 ft | 137 kts | 298° |
| 2026-05-06 19:50 | 37.62264 | -122.38454 | 238 ft | 157 kts | 298° |
| 2026-05-06 19:50 | 37.62829 | -122.39573 | 1021 ft | 146 kts | 308° |
| 2026-05-06 19:50 | 37.63589 | -122.40419 | 1546 ft | 154 kts | 333° |
| 2026-05-06 19:51 | 37.64953 | -122.40509 | 2072 ft | 150 kts | 25° |
| 2026-05-06 19:51 | 37.65732 | -122.39588 | 2481 ft | 164 kts | 58° |
| 2026-05-06 19:51 | 37.66071 | -122.38692 | 2780 ft | 177 kts | 69° |
| 2026-05-06 19:51 | 37.66561 | -122.36579 | 3516 ft | 198 kts | 75° |
| 2026-05-06 19:52 | 37.66772 | -122.35435 | 3892 ft | 207 kts | 76° |
| 2026-05-06 19:52 | 37.67081 | -122.33571 | 4435 ft | 226 kts | 75° |
| 2026-05-06 19:52 | 37.67553 | -122.31574 | 4955 ft | 248 kts | 67° |
| 2026-05-06 19:52 | 37.68270 | -122.29503 | 5491 ft | 266 kts | 62° |
| 2026-05-06 19:53 | 37.69130 | -122.27422 | 6358 ft | 270 kts | 60° |
| 2026-05-06 19:53 | 37.70045 | -122.25329 | 7226 ft | 273 kts | 59° |
| 2026-05-06 19:53 | 37.70978 | -122.23220 | 8052 ft | 277 kts | 59° |
| 2026-05-06 19:53 | 37.71932 | -122.21094 | 8915 ft | 280 kts | 56° |
| 2026-05-06 19:54 | 37.73012 | -122.19032 | 9783 ft | 283 kts | 55° |
| 2026-05-06 19:54 | 37.74098 | -122.16956 | 10468 ft | 294 kts | 55° |
| 2026-05-06 19:54 | 37.75262 | -122.14723 | 10779 ft | 317 kts | 56° |
| 2026-05-06 19:54 | 37.76516 | -122.12307 | 11166 ft | 334 kts | 56° |
| 2026-05-06 19:55 | 37.77796 | -122.09834 | 11945 ft | 338 kts | 56° |
| 2026-05-06 19:55 | 37.79087 | -122.07336 | 12752 ft | 341 kts | 56° |
| 2026-05-06 19:55 | 37.80389 | -122.04815 | 13514 ft | 344 kts | 57° |
| 2026-05-06 19:55 | 37.81656 | -122.02238 | 14263 ft | 347 kts | 61° |
| 2026-05-06 19:56 | 37.82669 | -121.99450 | 14955 ft | 351 kts | 69° |
| 2026-05-06 19:56 | 37.83382 | -121.96482 | 15642 ft | 354 kts | 76° |
| 2026-05-06 19:56 | 37.83923 | -121.93468 | 16309 ft | 358 kts | 76° |
| 2026-05-06 19:56 | 37.84491 | -121.90395 | 17029 ft | 360 kts | 75° |
| 2026-05-06 19:57 | 37.85070 | -121.87292 | 17648 ft | 365 kts | 75° |
| 2026-05-06 19:57 | 37.85655 | -121.84157 | 18339 ft | 368 kts | 75° |
| 2026-05-06 19:57 | 37.86243 | -121.80997 | 18932 ft | 372 kts | 75° |
| 2026-05-06 19:57 | 37.86834 | -121.77810 | 19479 ft | 376 kts | 75° |
| 2026-05-06 19:58 | 37.87434 | -121.74559 | 20040 ft | 380 kts | 75° |
| 2026-05-06 19:58 | 37.88036 | -121.71289 | 20582 ft | 384 kts | 75° |
| 2026-05-06 19:58 | 37.88646 | -121.67978 | 21120 ft | 388 kts | 75° |
| 2026-05-06 19:58 | 37.89260 | -121.64639 | 21660 ft | 392 kts | 75° |
| 2026-05-06 19:59 | 37.89879 | -121.61265 | 22189 ft | 396 kts | 75° |
| 2026-05-06 19:59 | 37.90496 | -121.57899 | 22709 ft | 400 kts | 75° |
| 2026-05-06 19:59 | 37.91126 | -121.54453 | 23214 ft | 404 kts | 75° |
| 2026-05-06 19:59 | 37.91763 | -121.50967 | 23737 ft | 408 kts | 75° |
| 2026-05-06 20:00 | 37.92395 | -121.47499 | 24185 ft | 411 kts | 75° |
| 2026-05-06 20:00 | 37.93038 | -121.43965 | 24644 ft | 413 kts | 75° |
| 2026-05-06 20:00 | 37.93684 | -121.40406 | 25091 ft | 416 kts | 75° |
| 2026-05-06 20:00 | 37.94335 | -121.36818 | 25529 ft | 419 kts | 75° |
| 2026-05-06 20:01 | 37.94988 | -121.33214 | 25958 ft | 422 kts | 75° |
| 2026-05-06 20:01 | 37.95643 | -121.29586 | 26375 ft | 424 kts | 75° |
| 2026-05-06 20:01 | 37.96303 | -121.25927 | 26774 ft | 427 kts | 75° |
| 2026-05-06 20:01 | 37.96964 | -121.22254 | 27171 ft | 429 kts | 75° |
| 2026-05-06 20:02 | 37.97630 | -121.18550 | 27565 ft | 432 kts | 75° |
| 2026-05-06 20:02 | 37.98289 | -121.14882 | 27951 ft | 434 kts | 75° |
| 2026-05-06 20:02 | 37.98959 | -121.11139 | 28329 ft | 437 kts | 75° |
| 2026-05-06 20:02 | 37.99612 | -121.07367 | 28705 ft | 440 kts | 76° |
| 2026-05-06 20:03 | 38.00202 | -121.03556 | 29053 ft | 442 kts | 77° |
| 2026-05-06 20:03 | 38.00777 | -120.99717 | 29397 ft | 444 kts | 77° |
| 2026-05-06 20:03 | 38.01359 | -120.95853 | 29733 ft | 447 kts | 76° |
| 2026-05-06 20:03 | 38.01950 | -120.91977 | 30072 ft | 449 kts | 76° |
| 2026-05-06 20:04 | 38.02546 | -120.88098 | 30373 ft | 451 kts | 76° |
| 2026-05-06 20:04 | 38.03147 | -120.84193 | 30701 ft | 452 kts | 76° |
| 2026-05-06 20:04 | 38.03740 | -120.80339 | 31017 ft | 453 kts | 76° |
| 2026-05-06 20:04 | 38.04342 | -120.76411 | 31324 ft | 454 kts | 76° |
| 2026-05-06 20:05 | 38.04943 | -120.72474 | 31724 ft | 453 kts | 76° |
| 2026-05-06 20:05 | 38.05540 | -120.68554 | 32134 ft | 452 kts | 76° |
| 2026-05-06 20:05 | 38.06132 | -120.64653 | 32562 ft | 450 kts | 76° |
| 2026-05-06 20:05 | 38.06723 | -120.60761 | 32978 ft | 448 kts | 76° |
| 2026-05-06 20:06 | 38.07309 | -120.56887 | 33379 ft | 446 kts | 76° |
| 2026-05-06 20:06 | 38.07892 | -120.53027 | 33768 ft | 444 kts | 76° |
| 2026-05-06 20:06 | 38.08464 | -120.49231 | 34131 ft | 443 kts | 76° |
| 2026-05-06 20:06 | 38.09039 | -120.45399 | 34458 ft | 442 kts | 76° |
| 2026-05-06 20:07 | 38.09612 | -120.41578 | 34753 ft | 441 kts | 76° |
| 2026-05-06 20:07 | 38.10184 | -120.37757 | 35020 ft | 440 kts | 76° |
| 2026-05-06 20:07 | 38.10753 | -120.33942 | 35308 ft | 439 kts | 76° |
| 2026-05-06 20:07 | 38.11322 | -120.30135 | 35552 ft | 438 kts | 76° |
| 2026-05-06 20:08 | 38.11888 | -120.26326 | 35771 ft | 438 kts | 76° |
| 2026-05-06 20:08 | 38.12450 | -120.22531 | 36036 ft | 437 kts | 76° |
| 2026-05-06 20:08 | 38.13010 | -120.18738 | 36264 ft | 437 kts | 76° |
| 2026-05-06 20:08 | 38.13568 | -120.14946 | 36494 ft | 436 kts | 76° |
| 2026-05-06 20:09 | 38.14115 | -120.11218 | 36716 ft | 435 kts | 76° |
| 2026-05-06 20:09 | 38.14671 | -120.07439 | 36932 ft | 435 kts | 76° |
| 2026-05-06 20:09 | 38.15223 | -120.03672 | 37167 ft | 434 kts | 76° |
| 2026-05-06 20:09 | 38.15773 | -119.99904 | 37391 ft | 433 kts | 76° |
| 2026-05-06 20:10 | 38.16321 | -119.96148 | 37590 ft | 432 kts | 76° |
| 2026-05-06 20:10 | 38.16868 | -119.92391 | 37755 ft | 432 kts | 76° |
| 2026-05-06 20:10 | 38.17412 | -119.88640 | 37985 ft | 431 kts | 76° |
| 2026-05-06 20:10 | 38.17954 | -119.84903 | 38142 ft | 431 kts | 76° |
| 2026-05-06 20:11 | 38.18492 | -119.81179 | 38349 ft | 430 kts | 76° |
| 2026-05-06 20:11 | 38.19031 | -119.77442 | 38506 ft | 430 kts | 76° |
| 2026-05-06 20:11 | 38.19569 | -119.73701 | 38632 ft | 430 kts | 76° |
| 2026-05-06 20:11 | 38.20106 | -119.69962 | 38852 ft | 428 kts | 76° |
| 2026-05-06 20:12 | 38.20631 | -119.66293 | 38970 ft | 428 kts | 76° |
| 2026-05-06 20:12 | 38.21163 | -119.62559 | 39032 ft | 430 kts | 76° |
| 2026-05-06 20:12 | 38.22227 | -119.55080 | 39153 ft | 430 kts | 76° |
| 2026-05-06 20:13 | 38.23284 | -119.47616 | 39157 ft | 428 kts | 76° |
| 2026-05-06 20:13 | 38.24335 | -119.40143 | 39152 ft | 430 kts | 76° |
| 2026-05-06 20:14 | 38.25379 | -119.32700 | 39149 ft | 428 kts | 76° |
| 2026-05-06 20:14 | 38.26420 | -119.25237 | 39142 ft | 429 kts | 76° |
| 2026-05-06 20:15 | 38.27452 | -119.17816 | 39140 ft | 429 kts | 76° |
| 2026-05-06 20:15 | 38.28485 | -119.10347 | 39135 ft | 427 kts | 76° |
| 2026-05-06 20:16 | 38.29511 | -119.02892 | 39128 ft | 428 kts | 76° |
| 2026-05-06 20:16 | 38.30533 | -118.95430 | 39127 ft | 428 kts | 76° |
| 2026-05-06 20:17 | 38.31543 | -118.88015 | 39135 ft | 427 kts | 76° |
| 2026-05-06 20:17 | 38.32553 | -118.80558 | 39144 ft | 428 kts | 76° |
| 2026-05-06 20:18 | 38.33559 | -118.73100 | 39158 ft | 427 kts | 76° |
| 2026-05-06 20:18 | 38.34559 | -118.65645 | 39168 ft | 427 kts | 76° |
| 2026-05-06 20:19 | 38.35558 | -118.58182 | 39161 ft | 428 kts | 76° |
| 2026-05-06 20:19 | 38.36548 | -118.50730 | 39150 ft | 426 kts | 76° |
| 2026-05-06 20:20 | 38.37527 | -118.43335 | 39138 ft | 427 kts | 76° |
| 2026-05-06 20:20 | 38.38507 | -118.35880 | 39124 ft | 425 kts | 76° |
| 2026-05-06 20:21 | 38.39482 | -118.28424 | 39109 ft | 427 kts | 76° |
| 2026-05-06 20:21 | 38.40451 | -118.20979 | 39084 ft | 426 kts | 76° |
| 2026-05-06 20:22 | 38.41410 | -118.13577 | 39079 ft | 425 kts | 76° |
| 2026-05-06 20:22 | 38.42367 | -118.06151 | 39074 ft | 424 kts | 76° |
| 2026-05-06 20:23 | 38.43319 | -117.98720 | 39075 ft | 424 kts | 76° |
| 2026-05-06 20:23 | 38.44264 | -117.91303 | 39078 ft | 424 kts | 76° |
| 2026-05-06 20:24 | 38.45201 | -117.83923 | 39073 ft | 424 kts | 76° |
| 2026-05-06 20:24 | 38.46137 | -117.76504 | 39070 ft | 423 kts | 76° |
| 2026-05-06 20:25 | 38.47068 | -117.69098 | 39073 ft | 423 kts | 76° |
| 2026-05-06 20:25 | 38.47993 | -117.61683 | 39076 ft | 423 kts | 76° |
| 2026-05-06 20:26 | 38.48916 | -117.54257 | 39074 ft | 423 kts | 76° |
| 2026-05-06 20:26 | 38.49834 | -117.46831 | 39070 ft | 424 kts | 76° |
| 2026-05-06 20:27 | 38.50742 | -117.39451 | 39084 ft | 424 kts | 76° |
| 2026-05-06 20:27 | 38.51634 | -117.32007 | 39079 ft | 425 kts | 78° |
| 2026-05-06 20:28 | 38.51961 | -117.24428 | 39072 ft | 431 kts | 85° |
| 2026-05-06 20:28 | 38.51746 | -117.16766 | 39079 ft | 432 kts | 86° |
| 2026-05-06 20:29 | 38.51564 | -117.09147 | 39086 ft | 432 kts | 86° |
| 2026-05-06 20:29 | 38.51379 | -117.01465 | 39088 ft | 433 kts | 86° |
| 2026-05-06 20:30 | 38.51089 | -116.89934 | 39096 ft | 433 kts | 86° |
| 2026-05-06 20:31 | 38.50887 | -116.82259 | 39092 ft | 432 kts | 86° |
| 2026-05-06 20:31 | 38.50678 | -116.74645 | 39086 ft | 433 kts | 86° |
| 2026-05-06 20:32 | 38.50462 | -116.66964 | 39078 ft | 432 kts | 86° |
| 2026-05-06 20:32 | 38.50243 | -116.59310 | 39070 ft | 432 kts | 86° |
| 2026-05-06 20:33 | 38.50017 | -116.51637 | 39065 ft | 433 kts | 86° |
| 2026-05-06 20:33 | 38.49787 | -116.43949 | 39064 ft | 434 kts | 86° |
| 2026-05-06 20:34 | 38.49552 | -116.36315 | 39054 ft | 432 kts | 86° |
| 2026-05-06 20:34 | 38.49312 | -116.28649 | 39053 ft | 432 kts | 86° |
| 2026-05-06 20:35 | 38.49067 | -116.20983 | 39047 ft | 433 kts | 86° |
| 2026-05-06 20:35 | 38.48818 | -116.13351 | 39038 ft | 432 kts | 86° |
| 2026-05-06 20:36 | 38.48562 | -116.05677 | 39041 ft | 433 kts | 86° |
| 2026-05-06 20:36 | 38.48302 | -115.97996 | 39044 ft | 434 kts | 86° |
| 2026-05-06 20:37 | 38.48036 | -115.90304 | 39045 ft | 433 kts | 86° |
| 2026-05-06 20:37 | 38.47765 | -115.82631 | 39041 ft | 432 kts | 86° |
| 2026-05-06 20:38 | 38.47492 | -115.75010 | 39045 ft | 433 kts | 86° |
| 2026-05-06 20:38 | 38.47212 | -115.67349 | 39043 ft | 432 kts | 86° |
| 2026-05-06 20:39 | 38.46927 | -115.59681 | 39039 ft | 433 kts | 86° |
| 2026-05-06 20:39 | 38.46636 | -115.52004 | 39037 ft | 433 kts | 86° |
| 2026-05-06 20:40 | 38.46341 | -115.44314 | 39030 ft | 434 kts | 86° |
| 2026-05-06 20:40 | 38.46044 | -115.36690 | 39029 ft | 433 kts | 86° |
| 2026-05-06 20:41 | 38.45737 | -115.29024 | 39029 ft | 433 kts | 86° |
| 2026-05-06 20:41 | 38.45426 | -115.21351 | 39023 ft | 433 kts | 86° |
| 2026-05-06 20:42 | 38.45110 | -115.13676 | 39024 ft | 433 kts | 86° |
| 2026-05-06 20:42 | 38.44792 | -115.06050 | 39024 ft | 433 kts | 86° |
| 2026-05-06 20:43 | 38.44467 | -114.98374 | 39028 ft | 434 kts | 86° |
| 2026-05-06 20:43 | 38.44136 | -114.90685 | 39034 ft | 434 kts | 86° |
| 2026-05-06 20:44 | 38.43799 | -114.82993 | 39036 ft | 434 kts | 87° |
| 2026-05-06 20:44 | 38.43458 | -114.75303 | 39041 ft | 435 kts | 87° |
| 2026-05-06 20:45 | 38.43113 | -114.67659 | 39049 ft | 435 kts | 87° |
| 2026-05-06 20:45 | 38.42762 | -114.59967 | 39050 ft | 434 kts | 87° |
| 2026-05-06 20:46 | 38.42406 | -114.52277 | 39052 ft | 434 kts | 87° |
| 2026-05-06 20:46 | 38.42044 | -114.44587 | 39056 ft | 434 kts | 87° |
| 2026-05-06 20:47 | 38.41678 | -114.36900 | 39062 ft | 435 kts | 87° |
| 2026-05-06 20:47 | 38.41309 | -114.29257 | 39065 ft | 435 kts | 87° |
| 2026-05-06 20:48 | 38.40932 | -114.21562 | 39071 ft | 435 kts | 87° |
| 2026-05-06 20:48 | 38.40549 | -114.13868 | 39059 ft | 434 kts | 87° |
| 2026-05-06 20:49 | 38.40163 | -114.06194 | 39060 ft | 434 kts | 87° |
| 2026-05-06 20:49 | 38.39774 | -113.98565 | 39059 ft | 434 kts | 87° |
| 2026-05-06 20:50 | 38.39379 | -113.90896 | 39060 ft | 434 kts | 87° |
| 2026-05-06 20:50 | 38.38977 | -113.83220 | 39059 ft | 435 kts | 87° |
| 2026-05-06 20:51 | 38.38570 | -113.75522 | 39057 ft | 436 kts | 87° |
| 2026-05-06 20:51 | 38.38158 | -113.67863 | 39062 ft | 436 kts | 87° |
| 2026-05-06 20:52 | 38.37740 | -113.60143 | 39062 ft | 438 kts | 87° |
| 2026-05-06 20:52 | 38.37315 | -113.52428 | 39055 ft | 436 kts | 87° |
| 2026-05-06 20:53 | 38.36888 | -113.44719 | 39072 ft | 437 kts | 88° |
| 2026-05-06 20:53 | 38.36452 | -113.36995 | 39093 ft | 436 kts | 88° |
| 2026-05-06 20:54 | 38.36016 | -113.29338 | 39123 ft | 437 kts | 88° |
| 2026-05-06 20:54 | 38.35572 | -113.21626 | 39143 ft | 437 kts | 88° |
| 2026-05-06 20:55 | 38.35122 | -113.13903 | 39173 ft | 437 kts | 88° |
| 2026-05-06 20:55 | 38.34667 | -113.06176 | 39188 ft | 437 kts | 88° |
| 2026-05-06 20:56 | 38.34208 | -112.98453 | 39183 ft | 437 kts | 88° |
| 2026-05-06 20:56 | 38.33746 | -112.90777 | 39175 ft | 438 kts | 88° |
| 2026-05-06 20:57 | 38.33275 | -112.83040 | 39147 ft | 438 kts | 88° |
| 2026-05-06 20:57 | 38.32799 | -112.75298 | 39128 ft | 438 kts | 88° |
| 2026-05-06 20:58 | 38.32318 | -112.67559 | 39103 ft | 438 kts | 88° |
| 2026-05-06 20:58 | 38.31834 | -112.59874 | 39067 ft | 438 kts | 88° |
| 2026-05-06 20:59 | 38.31343 | -112.52138 | 39051 ft | 438 kts | 88° |
| 2026-05-06 20:59 | 38.30845 | -112.44408 | 39049 ft | 438 kts | 88° |
| 2026-05-06 21:00 | 38.30345 | -112.36671 | 39043 ft | 438 kts | 88° |
| 2026-05-06 21:00 | 38.29837 | -112.28932 | 39037 ft | 439 kts | 88° |
| 2026-05-06 21:01 | 38.29327 | -112.21245 | 39029 ft | 439 kts | 88° |
| 2026-05-06 21:01 | 38.28810 | -112.13506 | 39028 ft | 439 kts | 88° |
| 2026-05-06 21:02 | 38.28323 | -112.06267 | 39023 ft | 440 kts | 88° |
| 2026-05-06 21:02 | 38.27793 | -111.98512 | 39022 ft | 440 kts | 88° |
| 2026-05-06 21:03 | 38.27260 | -111.90764 | 39025 ft | 440 kts | 88° |
| 2026-05-06 21:03 | 38.26726 | -111.83118 | 38650 ft | 433 kts | 88° |
| 2026-05-06 21:03 | 38.26457 | -111.79305 | 38039 ft | 432 kts | 88° |
| 2026-05-06 21:04 | 38.26191 | -111.75497 | 37439 ft | 430 kts | 88° |
| 2026-05-06 21:04 | 38.25659 | -111.67913 | 37236 ft | 437 kts | 88° |
| 2026-05-06 21:04 | 38.25387 | -111.64046 | 37122 ft | 441 kts | 88° |
| 2026-05-06 21:05 | 38.25109 | -111.60165 | 37012 ft | 440 kts | 88° |
| 2026-05-06 21:05 | 38.24551 | -111.52476 | 36988 ft | 439 kts | 88° |
| 2026-05-06 21:06 | 38.23987 | -111.44734 | 36980 ft | 440 kts | 88° |
| 2026-05-06 21:06 | 38.23417 | -111.36988 | 36967 ft | 440 kts | 88° |
| 2026-05-06 21:07 | 38.22843 | -111.29233 | 36962 ft | 440 kts | 88° |
| 2026-05-06 21:07 | 38.22262 | -111.21479 | 36958 ft | 441 kts | 89° |
| 2026-05-06 21:08 | 38.21677 | -111.13725 | 36955 ft | 440 kts | 89° |
| 2026-05-06 21:08 | 38.21090 | -111.06016 | 36959 ft | 441 kts | 89° |
| 2026-05-06 21:09 | 38.20495 | -110.98262 | 36987 ft | 440 kts | 89° |
| 2026-05-06 21:09 | 38.19893 | -110.90516 | 37015 ft | 441 kts | 89° |
| 2026-05-06 21:10 | 38.19288 | -110.82769 | 37038 ft | 441 kts | 89° |
| 2026-05-06 21:10 | 38.18677 | -110.75013 | 37051 ft | 441 kts | 89° |
| 2026-05-06 21:11 | 38.18066 | -110.67315 | 37055 ft | 441 kts | 89° |
| 2026-05-06 21:11 | 38.17444 | -110.59556 | 37044 ft | 441 kts | 89° |
| 2026-05-06 21:12 | 38.16817 | -110.51808 | 37027 ft | 441 kts | 89° |
| 2026-05-06 21:12 | 38.16186 | -110.44068 | 37011 ft | 440 kts | 89° |
| 2026-05-06 21:13 | 38.15560 | -110.36383 | 36997 ft | 439 kts | 89° |
| 2026-05-06 21:13 | 38.14924 | -110.28665 | 36987 ft | 439 kts | 89° |
| 2026-05-06 21:14 | 38.14283 | -110.20942 | 37003 ft | 441 kts | 89° |
| 2026-05-06 21:14 | 38.13636 | -110.13184 | 36997 ft | 442 kts | 89° |
| 2026-05-06 21:15 | 38.13337 | -110.05457 | 36989 ft | 437 kts | 84° |
| 2026-05-06 21:15 | 38.13221 | -109.97774 | 37019 ft | 440 kts | 85° |
| 2026-05-06 21:16 | 38.13037 | -109.90003 | 37031 ft | 440 kts | 85° |
| 2026-05-06 21:16 | 38.12823 | -109.82216 | 37040 ft | 442 kts | 85° |
| 2026-05-06 21:17 | 38.12600 | -109.74413 | 37044 ft | 443 kts | 85° |
| 2026-05-06 21:17 | 38.12373 | -109.66661 | 37032 ft | 442 kts | 85° |
| 2026-05-06 21:18 | 38.12143 | -109.58877 | 37029 ft | 441 kts | 85° |
| 2026-05-06 21:18 | 38.11908 | -109.51044 | 37054 ft | 445 kts | 85° |
| 2026-05-06 21:19 | 38.11665 | -109.43200 | 37048 ft | 445 kts | 86° |
| 2026-05-06 21:19 | 38.11417 | -109.35387 | 37048 ft | 446 kts | 86° |
| 2026-05-06 21:20 | 38.11163 | -109.27517 | 37050 ft | 446 kts | 86° |
| 2026-05-06 21:20 | 38.10904 | -109.19645 | 37037 ft | 447 kts | 86° |
| 2026-05-06 21:21 | 38.10640 | -109.11742 | 37039 ft | 449 kts | 86° |
| 2026-05-06 21:21 | 38.10368 | -109.03827 | 37035 ft | 449 kts | 86° |
| 2026-05-06 21:22 | 38.10503 | -108.96013 | 37025 ft | 441 kts | 75° |
| 2026-05-06 21:22 | 38.12123 | -108.88641 | 37023 ft | 429 kts | 61° |
| 2026-05-06 21:23 | 38.14759 | -108.81858 | 37022 ft | 427 kts | 58° |
| 2026-05-06 21:23 | 38.17400 | -108.75139 | 37019 ft | 428 kts | 58° |
| 2026-05-06 21:24 | 38.20053 | -108.68361 | 37024 ft | 429 kts | 58° |
| 2026-05-06 21:24 | 38.22716 | -108.61547 | 37028 ft | 430 kts | 58° |
| 2026-05-06 21:25 | 38.25361 | -108.54764 | 37038 ft | 431 kts | 58° |
| 2026-05-06 21:25 | 38.28024 | -108.47923 | 37034 ft | 432 kts | 58° |
| 2026-05-06 21:26 | 38.30687 | -108.41067 | 37033 ft | 433 kts | 58° |
| 2026-05-06 21:26 | 38.33348 | -108.34199 | 37035 ft | 433 kts | 58° |
| 2026-05-06 21:27 | 38.36008 | -108.27317 | 37058 ft | 433 kts | 58° |
| 2026-05-06 21:27 | 38.38654 | -108.20461 | 37080 ft | 434 kts | 58° |
| 2026-05-06 21:28 | 38.41316 | -108.13546 | 37109 ft | 435 kts | 58° |
| 2026-05-06 21:28 | 38.43974 | -108.06622 | 37136 ft | 435 kts | 58° |
| 2026-05-06 21:29 | 38.46630 | -107.99689 | 37163 ft | 435 kts | 59° |
| 2026-05-06 21:29 | 38.49249 | -107.92768 | 37165 ft | 436 kts | 59° |
| 2026-05-06 21:30 | 38.51878 | -107.85794 | 37165 ft | 436 kts | 59° |
| 2026-05-06 21:30 | 38.54506 | -107.78816 | 37161 ft | 436 kts | 59° |
| 2026-05-06 21:31 | 38.57131 | -107.71832 | 37135 ft | 436 kts | 59° |
| 2026-05-06 21:31 | 38.59750 | -107.64845 | 37098 ft | 436 kts | 59° |
| 2026-05-06 21:32 | 38.62350 | -107.57889 | 37070 ft | 437 kts | 59° |
| 2026-05-06 21:32 | 38.66284 | -107.47349 | 37025 ft | 438 kts | 59° |
| 2026-05-06 21:33 | 38.68946 | -107.40334 | 37028 ft | 439 kts | 59° |
| 2026-05-06 21:33 | 38.71600 | -107.33342 | 37037 ft | 440 kts | 59° |
| 2026-05-06 21:34 | 38.74263 | -107.26288 | 37042 ft | 440 kts | 59° |
| 2026-05-06 21:34 | 38.76925 | -107.19216 | 37040 ft | 441 kts | 59° |
| 2026-05-06 21:35 | 38.79588 | -107.12128 | 37034 ft | 441 kts | 59° |
| 2026-05-06 21:35 | 38.82223 | -107.05097 | 37027 ft | 441 kts | 59° |
| 2026-05-06 21:36 | 38.84878 | -106.97994 | 37039 ft | 443 kts | 59° |
| 2026-05-06 21:36 | 38.87546 | -106.90846 | 37037 ft | 445 kts | 59° |
| 2026-05-06 21:37 | 38.90202 | -106.83703 | 37044 ft | 443 kts | 59° |
| 2026-05-06 21:37 | 38.92859 | -106.76546 | 37060 ft | 444 kts | 59° |
| 2026-05-06 21:38 | 38.95496 | -106.69424 | 37057 ft | 445 kts | 60° |
| 2026-05-06 21:38 | 38.98148 | -106.62244 | 37056 ft | 445 kts | 60° |
| 2026-05-06 21:39 | 39.00796 | -106.55059 | 36846 ft | 443 kts | 60° |
| 2026-05-06 21:39 | 39.02104 | -106.51485 | 36355 ft | 442 kts | 60° |
| 2026-05-06 21:39 | 39.03410 | -106.47910 | 35742 ft | 442 kts | 60° |
| 2026-05-06 21:40 | 39.04717 | -106.44334 | 35087 ft | 442 kts | 59° |
| 2026-05-06 21:40 | 39.06017 | -106.40768 | 34317 ft | 438 kts | 59° |
| 2026-05-06 21:40 | 39.07302 | -106.37236 | 33377 ft | 433 kts | 59° |
| 2026-05-06 21:40 | 39.08553 | -106.33793 | 32357 ft | 429 kts | 59° |
| 2026-05-06 21:41 | 39.09809 | -106.30331 | 31309 ft | 425 kts | 58° |
| 2026-05-06 21:41 | 39.11047 | -106.26913 | 30616 ft | 413 kts | 58° |
| 2026-05-06 21:41 | 39.12228 | -106.23636 | 30289 ft | 395 kts | 58° |
| 2026-05-06 21:41 | 39.13371 | -106.20470 | 29447 ft | 387 kts | 58° |
| 2026-05-06 21:42 | 39.14501 | -106.17362 | 28910 ft | 380 kts | 58° |
| 2026-05-06 21:42 | 39.15615 | -106.14295 | 28581 ft | 378 kts | 58° |
| 2026-05-06 21:42 | 39.16724 | -106.11234 | 28120 ft | 375 kts | 58° |
| 2026-05-06 21:42 | 39.17804 | -106.08236 | 27663 ft | 371 kts | 58° |
| 2026-05-06 21:43 | 39.18880 | -106.05240 | 27198 ft | 366 kts | 58° |
| 2026-05-06 21:43 | 39.19941 | -106.02277 | 26740 ft | 361 kts | 58° |
| 2026-05-06 21:43 | 39.20989 | -105.99355 | 26288 ft | 357 kts | 58° |
| 2026-05-06 21:43 | 39.22023 | -105.96472 | 25836 ft | 353 kts | 58° |
| 2026-05-06 21:44 | 39.23047 | -105.93612 | 25398 ft | 350 kts | 58° |
| 2026-05-06 21:44 | 39.24104 | -105.90688 | 24949 ft | 373 kts | 59° |
| 2026-05-06 21:44 | 39.25229 | -105.87594 | 24518 ft | 384 kts | 59° |
| 2026-05-06 21:44 | 39.26337 | -105.84521 | 24088 ft | 381 kts | 59° |
| 2026-05-06 21:45 | 39.27443 | -105.81441 | 23632 ft | 377 kts | 59° |
| 2026-05-06 21:45 | 39.28542 | -105.78379 | 23191 ft | 375 kts | 60° |
| 2026-05-06 21:45 | 39.29646 | -105.75308 | 22779 ft | 377 kts | 60° |
| 2026-05-06 21:45 | 39.30738 | -105.72265 | 22357 ft | 371 kts | 60° |
| 2026-05-06 21:46 | 39.31814 | -105.69260 | 21953 ft | 365 kts | 60° |
| 2026-05-06 21:46 | 39.32873 | -105.66302 | 21538 ft | 362 kts | 60° |
| 2026-05-06 21:46 | 39.33943 | -105.63363 | 21135 ft | 365 kts | 60° |
| 2026-05-06 21:46 | 39.35019 | -105.60429 | 20974 ft | 357 kts | 60° |
| 2026-05-06 21:47 | 39.36044 | -105.57620 | 20712 ft | 344 kts | 60° |
| 2026-05-06 21:47 | 39.37062 | -105.54835 | 20021 ft | 343 kts | 60° |
| 2026-05-06 21:47 | 39.38075 | -105.52064 | 19579 ft | 336 kts | 60° |
| 2026-05-06 21:47 | 39.39063 | -105.49351 | 19207 ft | 335 kts | 60° |
| 2026-05-06 21:48 | 39.40061 | -105.46612 | 18839 ft | 339 kts | 60° |
| 2026-05-06 21:48 | 39.41029 | -105.43826 | 18454 ft | 342 kts | 66° |
| 2026-05-06 21:48 | 39.41617 | -105.40834 | 18034 ft | 344 kts | 79° |
| 2026-05-06 21:48 | 39.41736 | -105.37735 | 17537 ft | 346 kts | 88° |
| 2026-05-06 21:49 | 39.41735 | -105.34640 | 17091 ft | 343 kts | 87° |
| 2026-05-06 21:49 | 39.41742 | -105.31620 | 16703 ft | 336 kts | 87° |
| 2026-05-06 21:49 | 39.41753 | -105.28636 | 16337 ft | 331 kts | 87° |
| 2026-05-06 21:49 | 39.41772 | -105.25661 | 15962 ft | 331 kts | 87° |
| 2026-05-06 21:50 | 39.41791 | -105.22701 | 15597 ft | 328 kts | 87° |
| 2026-05-06 21:50 | 39.41809 | -105.19753 | 15223 ft | 328 kts | 88° |
| 2026-05-06 21:50 | 39.41825 | -105.16825 | 14858 ft | 326 kts | 88° |
| 2026-05-06 21:50 | 39.41838 | -105.13916 | 14503 ft | 323 kts | 88° |
| 2026-05-06 21:51 | 39.41850 | -105.11020 | 14125 ft | 321 kts | 88° |
| 2026-05-06 21:51 | 39.41860 | -105.08153 | 13757 ft | 317 kts | 88° |
| 2026-05-06 21:51 | 39.41871 | -105.05319 | 13398 ft | 313 kts | 88° |
| 2026-05-06 21:51 | 39.41880 | -105.02567 | 13135 ft | 307 kts | 88° |
| 2026-05-06 21:52 | 39.41887 | -104.99837 | 13024 ft | 299 kts | 88° |
| 2026-05-06 21:52 | 39.41893 | -104.97241 | 12990 ft | 277 kts | 88° |
| 2026-05-06 21:52 | 39.41897 | -104.94863 | 12989 ft | 256 kts | 88° |
| 2026-05-06 21:52 | 39.42049 | -104.92508 | 13009 ft | 269 kts | 81° |
| 2026-05-06 21:53 | 39.42273 | -104.90100 | 12985 ft | 269 kts | 81° |
| 2026-05-06 21:53 | 39.42487 | -104.87728 | 12896 ft | 261 kts | 81° |
| 2026-05-06 21:53 | 39.42694 | -104.85408 | 12575 ft | 259 kts | 82° |
| 2026-05-06 21:53 | 39.42899 | -104.83108 | 12190 ft | 257 kts | 82° |
| 2026-05-06 21:54 | 39.43100 | -104.80848 | 11817 ft | 255 kts | 82° |
| 2026-05-06 21:54 | 39.43301 | -104.78575 | 11444 ft | 253 kts | 82° |
| 2026-05-06 21:54 | 39.43542 | -104.76335 | 11099 ft | 250 kts | 75° |
| 2026-05-06 21:54 | 39.44105 | -104.74226 | 10740 ft | 247 kts | 66° |
| 2026-05-06 21:55 | 39.44855 | -104.72272 | 10637 ft | 245 kts | 50° |
| 2026-05-06 21:55 | 39.46171 | -104.70909 | 10600 ft | 243 kts | 25° |
| 2026-05-06 21:55 | 39.47686 | -104.69959 | 10390 ft | 242 kts | 23° |
| 2026-05-06 21:55 | 39.49284 | -104.69318 | 10153 ft | 239 kts | 7° |
| 2026-05-06 21:56 | 39.50929 | -104.69130 | 10078 ft | 242 kts | 0° |
| 2026-05-06 21:56 | 39.52636 | -104.69110 | 10001 ft | 241 kts | 359° |
| 2026-05-06 21:56 | 39.54295 | -104.69096 | 9995 ft | 242 kts | 359° |
| 2026-05-06 21:56 | 39.55977 | -104.69075 | 9998 ft | 242 kts | 359° |
| 2026-05-06 21:57 | 39.57658 | -104.69055 | 9998 ft | 242 kts | 359° |
| 2026-05-06 21:57 | 39.59333 | -104.69035 | 9980 ft | 242 kts | 359° |
| 2026-05-06 21:57 | 39.61024 | -104.69015 | 9833 ft | 240 kts | 359° |
| 2026-05-06 21:57 | 39.62684 | -104.68996 | 9603 ft | 237 kts | 359° |
| 2026-05-06 21:58 | 39.64346 | -104.68977 | 9493 ft | 240 kts | 360° |
| 2026-05-06 21:58 | 39.66019 | -104.68956 | 9379 ft | 240 kts | 359° |
| 2026-05-06 21:58 | 39.67671 | -104.68937 | 9131 ft | 240 kts | 359° |
| 2026-05-06 21:58 | 39.69326 | -104.68918 | 8836 ft | 238 kts | 359° |
| 2026-05-06 21:59 | 39.70975 | -104.68899 | 8531 ft | 235 kts | 360° |
| 2026-05-06 21:59 | 39.72596 | -104.68880 | 8197 ft | 228 kts | 360° |
| 2026-05-06 21:59 | 39.74090 | -104.68862 | 7947 ft | 203 kts | 359° |
| 2026-05-06 21:59 | 39.75456 | -104.68846 | 7685 ft | 185 kts | 360° |
| 2026-05-06 22:00 | 39.76669 | -104.68832 | 7439 ft | 165 kts | 359° |
| 2026-05-06 22:00 | 39.77752 | -104.68819 | 7227 ft | 151 kts | 359° |
| 2026-05-06 22:00 | 39.78774 | -104.68808 | 7041 ft | 148 kts | 359° |
| 2026-05-06 22:00 | 39.79812 | -104.68796 | 6845 ft | 148 kts | 360° |
| 2026-05-06 22:01 | 39.80842 | -104.68784 | 6656 ft | 148 kts | 360° |
| 2026-05-06 22:01 | 39.81869 | -104.68772 | 6424 ft | 148 kts | 360° |
| 2026-05-06 22:01 | 39.82888 | -104.68761 | 6146 ft | 146 kts | 360° |
| 2026-05-06 22:01 | 39.83896 | -104.68752 | 5890 ft | 144 kts | 360° |
| 2026-05-06 22:02 | 39.84900 | -104.68742 | 5692 ft | 144 kts | 0° |
| 2026-05-06 22:02 | 39.85898 | -104.68716 | 5510 ft | 143 kts | 1° |
| 2026-05-06 22:02 | 39.86869 | -104.68698 | 5370 ft | 140 kts | 0° |
| 2026-05-06 22:02 | 39.87476 | -104.68698 | 5361 ft | 110 kts | 359° |
| 2026-05-06 22:03 | 39.88154 | -104.68696 | 5362 ft | 47 kts | 1° |
| 2026-05-06 22:03 | 39.88459 | -104.68657 | 5355 ft | 42 kts | 22° |
| 2026-05-06 22:03 | 39.88599 | -104.68552 | 5357 ft | 16 kts | 69° |
| 2026-05-06 22:03 | 39.88525 | -104.68484 | 5357 ft | 15 kts | 176° |
| 2026-05-06 22:04 | 39.88411 | -104.68482 | 5357 ft | 17 kts | 179° |
| 2026-05-06 22:04 | 39.88291 | -104.68481 | 5359 ft | 17 kts | 181° |
| 2026-05-06 22:04 | 39.88212 | -104.68485 | 5359 ft | 18 kts | 181° |
| 2026-05-06 22:04 | 39.88085 | -104.68483 | 5361 ft | 19 kts | 179° |
| 2026-05-06 22:05 | 39.87952 | -104.68488 | 5362 ft | 19 kts | 192° |
| 2026-05-06 22:05 | 39.87775 | -104.68493 | 5362 ft | 19 kts | 178° |
| 2026-05-06 22:05 | 39.87640 | -104.68496 | 5363 ft | 20 kts | 181° |
| 2026-05-06 22:05 | 39.87543 | -104.68499 | 5363 ft | 21 kts | 181° |
| 2026-05-06 22:06 | 39.87389 | -104.68496 | 5359 ft | 23 kts | 178° |
| 2026-05-06 22:06 | 39.87220 | -104.68495 | 5360 ft | 25 kts | 179° |
| 2026-05-06 22:06 | 39.87048 | -104.68498 | 5360 ft | 26 kts | 180° |
| 2026-05-06 22:06 | 39.86867 | -104.68497 | 5361 ft | 26 kts | 180° |
| 2026-05-06 22:07 | 39.86694 | -104.68503 | 5362 ft | 25 kts | 182° |
| 2026-05-06 22:07 | 39.86521 | -104.68508 | 5365 ft | 25 kts | 180° |
| 2026-05-06 22:07 | 39.86347 | -104.68508 | 5366 ft | 25 kts | 181° |
| 2026-05-06 22:07 | 39.86165 | -104.68511 | 5364 ft | 27 kts | 179° |
| 2026-05-06 22:08 | 39.85977 | -104.68512 | 5365 ft | 27 kts | 182° |
| 2026-05-06 22:08 | 39.85794 | -104.68516 | 5365 ft | 26 kts | 180° |
| 2026-05-06 22:08 | 39.85612 | -104.68515 | 5369 ft | 26 kts | 180° |
| 2026-05-06 22:08 | 39.85436 | -104.68518 | 5372 ft | 24 kts | 181° |
| 2026-05-06 22:09 | 39.85318 | -104.68488 | 5372 ft | 16 kts | 127° |
| 2026-05-06 22:09 | 39.85310 | -104.68360 | 5376 ft | 12 kts | 91° |
| 2026-05-06 22:09 | 39.85308 | -104.68282 | 5385 ft | 6 kts | 92° |
| 2026-05-06 22:09 | 39.85306 | -104.68227 | 5386 ft | 7 kts | 92° |
| 2026-05-06 22:10 | 39.85296 | -104.68153 | 5384 ft | 10 kts | 114° |
| 2026-05-06 22:10 | 39.85282 | -104.68061 | 5386 ft | 12 kts | 90° |
| 2026-05-06 22:10 | 39.85283 | -104.67949 | 5386 ft | 14 kts | 89° |
| 2026-05-06 22:10 | 39.85284 | -104.67816 | 5386 ft | 16 kts | 89° |
| 2026-05-06 22:11 | 39.85286 | -104.67667 | 5386 ft | 17 kts | 89° |
| 2026-05-06 22:11 | 39.85288 | -104.67503 | 5386 ft | 19 kts | 89° |
| 2026-05-06 22:11 | 39.85271 | -104.67343 | 5386 ft | 18 kts | 81° |
| 2026-05-06 22:11 | 39.85279 | -104.67177 | 5386 ft | 19 kts | 89° |
| 2026-05-06 22:12 | 39.85275 | -104.66999 | 5386 ft | 20 kts | 93° |
| 2026-05-06 22:12 | 39.85269 | -104.66859 | 5386 ft | 13 kts | 95° |
| 2026-05-06 22:12 | 39.85271 | -104.66841 | 5386 ft | 0 kts | 55° |
| 2026-05-06 22:12 | 39.85273 | -104.66841 | 5386 ft | 0 kts | 41° |
| 2026-05-06 22:13 | 39.85276 | -104.66842 | 5382 ft | 0 kts | 6° |
| 2026-05-06 22:13 | 39.85289 | -104.66845 | 5386 ft | 3 kts | 352° |
| 2026-05-06 22:13 | 39.85307 | -104.66848 | 5386 ft | 1 kts | 357° |
| 2026-05-06 22:13 | 39.85324 | -104.66848 | 5386 ft | 0 kts | 0° |